Flight Track Log - Related Links

Times and Time Zones

All times are in EDT time to prevent confusion due to time zone crossing. See the SWA286 flight status page for this flight to view local times or setup timezone preferences in your user account.

Time Position Orientation Groundspeed Altitude Reporting Facility
EDT Latitude Longitude Course Direction KTS MPH feet Rate Location/Type
Sun 05:00:48 PM 36.1500 -86.6667 360° North 163 188 1,300  Level Nashville TRACON
Sun 05:01:24 PM 36.1667 -86.6667 360° North 173 199 2,800 2,750 Climbing Nashville TRACON
Sun 05:02:24 PM 36.2333 -86.6500 11° North 228 262 5,700 3,000 Climbing Nashville TRACON
Sun 05:03:24 PM 36.2500 -86.7333 284° West 274 315 8,800 3,000 Climbing Nashville TRACON
Sun 05:04:08 PM 36.2511 -86.7925 271° West 262 302 10,900 2,654 Climbing Memphis Center
Sun 05:05:08 PM 36.2542 -86.9031 272° West 352 405 13,400 3,100 Climbing Memphis Center
Sun 05:06:08 PM 36.2619 -87.0289 274° West 352 405 17,100 3,150 Climbing Memphis Center
Sun 05:07:08 PM 36.2669 -87.1444 273° West 346 398 19,700 2,400 Climbing Memphis Center
Sun 05:08:08 PM 36.2764 -87.2678 275° West 352 405 21,900 2,200 Climbing Memphis Center
Sun 05:09:08 PM 36.2983 -87.3931 282° West 363 418 24,100 2,200 Climbing Memphis Center
Sun 05:10:08 PM 36.3219 -87.5211 283° West 380 437 26,300 2,150 Climbing Memphis Center
Sun 05:11:08 PM 36.3583 -87.6486 290° West 386 444 28,400 1,950 Climbing Memphis Center
Sun 05:12:08 PM 36.3878 -87.7611 288° West 391 450 30,200 1,300 Climbing Memphis Center
Sun 05:13:08 PM 36.4217 -87.8889 288° West 391 450 31,000 400 Climbing Memphis Center
Sun 05:14:08 PM 36.4553 -88.0117 289° West 386 444 31,000 850 Level Memphis Center
Sun 05:15:08 PM 36.4953 -88.1472 290° West 381 438 32,700 1,500 Climbing Memphis Center
Sun 05:16:08 PM 36.5286 -88.2678 289° West 376 433 34,000 650 Climbing Memphis Center
Sun 05:17:08 PM 36.5578 -88.3858 287° West 371 427 34,000  Level Memphis Center
Sun 05:18:08 PM 36.5908 -88.5064 289° West 371 427 34,000  Level Memphis Center
Sun 05:19:08 PM 36.6217 -88.6247 288° West 364 419 34,000  Level Memphis Center
Sun 05:20:08 PM 36.6525 -88.7431 288° West 364 419 34,000  Level Memphis Center
Sun 05:21:08 PM 36.6833 -88.8667 287° West 364 419 34,000  Level Memphis Center
Sun 05:22:08 PM 36.7158 -88.9850 289° West 364 419 34,000  Level Memphis Center
Sun 05:23:08 PM 36.7464 -89.1036 288° West 364 419 34,000  Level Memphis Center
Sun 05:24:08 PM 36.7789 -89.2275 288° West 364 419 34,000  Level Memphis Center
Sun 05:25:08 PM 36.8069 -89.3489 286° West 364 419 34,000  Level Memphis Center
Sun 05:26:08 PM 36.8369 -89.4703 287° West 364 419 34,000  Level Memphis Center
Sun 05:27:08 PM 36.8669 -89.5944 287° West 364 419 34,000  Level Memphis Center
Sun 05:28:08 PM 36.8969 -89.7161 287° West 364 419 34,000  Level Memphis Center
Sun 05:29:08 PM 36.9286 -89.8406 288° West 369 425 34,000  Level Memphis Center
Sun 05:30:08 PM 36.9583 -89.9622 287° West 369 425 34,000  Level Memphis Center
Sun 05:31:08 PM 36.9878 -90.0869 286° West 374 430 34,000  Level Memphis Center
Sun 05:32:08 PM 37.0194 -90.2114 288° West 374 430 34,000  Level Memphis Center
Sun 05:34:40 PM 37.0933 -90.5078 287° West 378 435 34,000  Level Kansas City Center
Sun 05:35:42 PM 37.1242 -90.6342 287° West 380 437 34,000  Level Kansas City Center
Sun 05:36:44 PM 37.1614 -90.7867 287° West 380 437 34,000  Level Kansas City Center
Sun 05:37:46 PM 37.1925 -90.9125 287° West 378 435 34,000  Level Kansas City Center
Sun 05:38:48 PM 37.2214 -91.0422 286° West 384 442 34,000  Level Kansas City Center
Sun 05:39:50 PM 37.2522 -91.1714 287° West 385 443 34,000  Level Kansas City Center
Sun 05:40:52 PM 37.2825 -91.2997 287° West 383 441 34,000  Level Kansas City Center
Sun 05:41:54 PM 37.3133 -91.4308 287° West 386 444 34,000  Level Kansas City Center
Sun 05:42:56 PM 37.3436 -91.5611 286° West 387 445 34,000  Level Kansas City Center
Sun 05:43:58 PM 37.3808 -91.7189 287° West 389 448 34,000  Level Kansas City Center
Sun 05:45:00 PM 37.4111 -91.8517 286° West 391 450 34,000  Level Kansas City Center
Sun 05:46:02 PM 37.4414 -91.9850 286° West 393 452 34,000  Level Kansas City Center
Sun 05:47:04 PM 37.4717 -92.1186 286° West 394 453 34,000  Level Kansas City Center
Sun 05:48:06 PM 37.5019 -92.2536 286° West 396 456 34,000 194 Level Kansas City Center
Sun 05:49:08 PM 37.5322 -92.3917 285° West 401 461 34,400 871 Climbing Kansas City Center
Sun 05:50:10 PM 37.5625 -92.5283 286° West 403 464 35,800 1,258 Climbing Kansas City Center
Sun 05:51:12 PM 37.5922 -92.6653 285° West 401 461 37,000 1,065 Climbing Kansas City Center
Sun 05:52:14 PM 37.6236 -92.8017 286° West 402 463 38,000 484 Climbing Kansas City Center
Sun 05:53:16 PM 37.6592 -92.9667 285° West 402 463 38,000  Level Kansas City Center
Sun 05:54:18 PM 37.6900 -93.1047 286° West 405 466 38,000  Level Kansas City Center
Sun 05:55:20 PM 37.7203 -93.2425 286° West 404 465 38,000  Level Kansas City Center
Sun 05:56:22 PM 37.7500 -93.3814 285° West 407 468 38,000  Level Kansas City Center
Sun 05:57:24 PM 37.7789 -93.5206 285° West 408 470 38,000  Level Kansas City Center
Sun 05:58:26 PM 37.8081 -93.6617 285° West 411 473 38,000  Level Kansas City Center
Sun 05:59:28 PM 37.8403 -93.8008 286° West 411 473 38,000  Level Kansas City Center
Sun 06:00:30 PM 37.8750 -93.9714 285° West 414 476 38,000  Level Kansas City Center
Sun 06:01:32 PM 37.9031 -94.1119 284° West 413 475 38,000  Level Kansas City Center
Sun 06:02:34 PM 37.9331 -94.2522 285° West 411 473 38,000  Level Kansas City Center
Sun 06:03:36 PM 37.9611 -94.3925 284° West 411 473 38,000  Level Kansas City Center
Sun 06:04:38 PM 37.9892 -94.5258 285° West 409 471 38,000  Level Kansas City Center
Sun 06:05:40 PM 38.0211 -94.6839 284° West 412 474 38,000  Level Kansas City Center
Sun 06:06:42 PM 38.0475 -94.8189 284° West 412 474 38,000  Level Kansas City Center
Sun 06:07:44 PM 38.0789 -94.9756 284° West 410 472 38,000  Level Kansas City Center
Sun 06:08:46 PM 38.1067 -95.1150 284° West 417 480 38,000  Level Kansas City Center
Sun 06:09:48 PM 38.1375 -95.2739 284° West 414 476 38,000  Level Kansas City Center
Sun 06:10:50 PM 38.1642 -95.4114 284° West 417 480 38,000  Level Kansas City Center
Sun 06:11:52 PM 38.1961 -95.5708 284° West 419 482 38,000  Level Kansas City Center
Sun 06:12:54 PM 38.2222 -95.7108 283° West 424 488 38,000  Level Kansas City Center
Sun 06:13:56 PM 38.2497 -95.8506 284° West 425 489 38,000  Level Kansas City Center
Sun 06:14:58 PM 38.2808 -96.0144 284° West 426 490 38,000  Level Kansas City Center
Sun 06:16:00 PM 38.3078 -96.1556 284° West 427 491 38,000  Level Kansas City Center
Sun 06:17:02 PM 38.3383 -96.3200 283° West 427 491 38,000  Level Kansas City Center
Sun 06:18:04 PM 38.3667 -96.4739 283° West 431 496 38,000  Level Kansas City Center
Sun 06:19:06 PM 38.3919 -96.6086 284° West 428 493 38,000  Level Kansas City Center
Sun 06:20:08 PM 38.4189 -96.7567 283° West 429 494 38,000  Level Kansas City Center
Sun 06:21:10 PM 38.4519 -96.9369 283° West 426 490 38,000  Level Kansas City Center
Sun 06:22:12 PM 38.4769 -97.0814 283° West 431 496 38,000  Level Kansas City Center
Sun 06:23:14 PM 38.5036 -97.2294 283° West 430 495 38,000  Level Kansas City Center
Sun 06:24:16 PM 38.5308 -97.3783 283° West 433 498 38,000  Level Kansas City Center
Sun 06:25:18 PM 38.5558 -97.5275 282° West 433 498 38,000  Level Kansas City Center
Sun 06:26:20 PM 38.5822 -97.6758 283° West 432 497 38,000  Level Kansas City Center
Sun 06:27:22 PM 38.6128 -97.8528 283° West 427 491 38,000  Level Kansas City Center
Sun 06:28:24 PM 38.6389 -97.9994 283° West 425 489 38,000  Level Kansas City Center
Sun 06:29:26 PM 38.6631 -98.1464 282° West 425 489 38,000  Level Kansas City Center
Sun 06:30:28 PM 38.6875 -98.2939 282° West 425 489 38,000  Level Kansas City Center
Sun 06:31:30 PM 38.7122 -98.4406 282° West 425 489 38,000  Level Kansas City Center
Sun 06:32:32 PM 38.7406 -98.6158 282° West 421 484 38,000  Level Kansas City Center
Sun 06:33:34 PM 38.7656 -98.7625 282° West 423 487 38,000  Level Kansas City Center
Sun 06:34:36 PM 38.7900 -98.9119 282° West 428 493 38,000  Level Kansas City Center
Sun 06:35:38 PM 38.8142 -99.0608 282° West 428 493 38,000  Level Kansas City Center
Sun 06:36:40 PM 38.8389 -99.2114 282° West 433 498 38,000  Level Kansas City Center
Sun 06:37:40 PM 38.8492 -99.3897 274° West 447 514 38,000  Level Denver Center
Sun 06:38:42 PM 38.8506 -99.5425 271° West 449 517 38,000  Level Denver Center
Sun 06:39:43 PM 38.8519 -99.7194 271° West 446 513 38,000  Level Denver Center
Sun 06:40:45 PM 38.8531 -99.8728 271° West 451 519 38,000  Level Denver Center
Sun 06:41:47 PM 38.8533 -100.0514 270° West 449 517 38,000  Level Denver Center
Sun 06:42:49 PM 38.8550 -100.2064 271° West 455 524 38,000  Level Denver Center
Sun 06:43:50 PM 38.8553 -100.3606 270° West 452 520 38,000  Level Denver Center
Sun 06:44:52 PM 38.8558 -100.5425 270° West 458 527 38,000  Level Denver Center
Sun 06:45:54 PM 38.8556 -100.6953 270° West 452 520 38,000  Level Denver Center
Sun 06:46:56 PM 38.8544 -100.8756 270° West 454 522 38,000  Level Denver Center
Sun 06:47:58 PM 38.8542 -101.0297 270° West 454 522 38,000  Level Denver Center
Sun 06:48:59 PM 38.8536 -101.2111 270° West 457 526 38,000  Level Denver Center
Sun 06:50:01 PM 38.8522 -101.3669 269° West 458 527 38,000  Level Denver Center
Sun 06:51:03 PM 38.8519 -101.5506 270° West 460 529 38,000 -1,161 Level Denver Center
Sun 06:52:05 PM 38.8494 -101.7075 269° West 462 532 35,600 -1,951 Descending Denver Center
Sun 06:53:06 PM 38.8483 -101.8903 270° West 461 531 34,000 -780 Descending Denver Center
Sun 06:54:08 PM 38.8453 -102.0486 269° West 465 535 34,000  Level Denver Center
Sun 06:55:10 PM 38.8611 -102.2269 277° West 455 524 34,000 -435 Level Denver Center
Sun 06:56:12 PM 38.9053 -102.3672 292° West 444 511 33,100 -878 Descending Denver Center
Sun 06:57:13 PM 38.9500 -102.5069 292° West 442 509 32,200 -878 Descending Denver Center
Sun 06:58:15 PM 39.0022 -102.6708 292° West 444 511 31,300 -871 Descending Denver Center
Sun 06:59:17 PM 39.0456 -102.8108 292° West 441 507 30,400 -968 Descending Denver Center
Sun 07:00:19 PM 39.0978 -102.9725 293° West 440 506 29,300 -1,024 Descending Denver Center
Sun 07:01:20 PM 39.1422 -103.1131 292° West 442 509 28,300 -1,220 Descending Denver Center
Sun 07:02:22 PM 39.1914 -103.2725 292° West 435 501 26,800 -1,742 Descending Denver Center
Sun 07:03:24 PM 39.2319 -103.4019 292° West 417 480 24,700 -2,226 Descending Denver Center
Sun 07:04:26 PM 39.2767 -103.5461 292° West 399 459 22,200 -2,177 Descending Denver Center
Sun 07:05:28 PM 39.3139 -103.6681 292° West 388 447 20,200 -1,935 Descending Denver Center
Sun 07:06:30 PM 39.3503 -103.7875 292° West 380 437 18,200 -1,463 Descending Denver Center
Sun 07:07:31 PM 39.3894 -103.9186 291° West 368 423 17,200 -1,268 Descending Denver Center
Sun 07:08:33 PM 39.4006 -104.0386 277° West 323 372 15,600 -1,500 Descending Denver Center
Sun 07:09:35 PM 39.4050 -104.1486 273° West 309 356 14,100 -1,065 Descending Denver Center
Sun 07:10:37 PM 39.4089 -104.2514 273° West 289 333 13,400 -774 Descending Denver Center
Sun 07:11:39 PM 39.4147 -104.3447 275° West 248 285 12,500 -1,016 Descending Denver Center
Sun 07:12:41 PM 39.4178 -104.4297 273° West 238 274 11,300 -726 Descending Denver Center
Sun 07:13:43 PM 39.4275 -104.5192 278° West 236 272 11,000 -341 Descending Denver Center
Sun 07:14:44 PM 39.4650 -104.5894 305° West 243 280 10,600 -488 Descending Denver Center
Sun 07:15:46 PM 39.5231 -104.6339 329° Northwest 244 281 10,000 -581 Descending Denver Center
Sun 07:16:48 PM 39.5908 -104.6633 341° North 244 281 9,400 -774 Descending Denver Center
Sun 07:17:50 PM 39.6536 -104.6631 360° North 228 262 8,400 -1,065 Descending Denver Center
Sun 07:18:52 PM 39.7169 -104.6622 North 215 247 7,200 -919 Descending Denver Center
Sun 07:19:54 PM 39.7681 -104.6617 360° North 191 220 6,500 -677 Descending Denver Center
Sun 07:20:56 PM 39.8111 -104.6614 360° North 161 185 5,800 -532 Descending Denver Center
Sun 07:21:58 PM 39.8558 -104.6606 North 153 176 5,400 -387 Descending Denver Center
Sun 07:23:00 PM 39.8617 -104.6732 301° West  Level Estimated
Sun 07:30:00 PM 39.8617 -104.6732 142° Southeast  Level Estimated
Sun 07:31:00 PM 39.8617 -104.6732 142° Southeast  Level Estimated

Login

Don't have an account? Register now (free) for customized features, flight alerts, and more!